Time,TemperatureF,DewpointF,PressureIn,WindDirection,WindDirectionDegrees,WindSpeedMPH,WindSpeedGustMPH,Humidity,HourlyPrecipIn,Conditions,Clouds,dailyrainin,SoftwareType,DateUTC
2013-02-06 00:09:00,16.2,6.0,29.95,North,11,6.0,7.0,64,0.00,,,0.00,weatherlink.com 1.10,2013-02-06 05:09:00,
2013-02-06 00:24:00,16.1,6.0,29.95,North,5,7.0,9.0,64,0.00,,,0.00,weatherlink.com 1.10,2013-02-06 05:24:00,
2013-02-06 00:39:00,16.1,8.0,29.94,North,355,8.0,9.0,70,0.00,,,0.00,weatherlink.com 1.10,2013-02-06 05:39:00,
2013-02-06 00:54:00,16.0,7.0,29.94,North,9,6.0,9.0,68,0.00,,,0.00,weatherlink.com 1.10,2013-02-06 05:54:00,
2013-02-06 01:09:00,15.9,6.0,29.94,North,355,6.0,9.0,64,0.00,,,0.00,weatherlink.com 1.10,2013-02-06 06:09:00,
2013-02-06 01:24:00,15.7,4.0,29.94,North,11,7.0,10.0,60,0.00,,,0.00,weatherlink.com 1.10,2013-02-06 06:24:00,
2013-02-06 01:39:00,15.7,5.0,29.93,North,355,7.0,10.0,62,0.00,,,0.00,weatherlink.com 1.10,2013-02-06 06:39:00,
2013-02-06 01:54:00,15.7,7.0,29.93,NNW,343,6.0,9.0,68,0.00,,,0.00,weatherlink.com 1.10,2013-02-06 06:54:00,
2013-02-06 02:09:00,15.2,6.0,29.93,North,355,5.0,9.0,67,0.00,,,0.00,weatherlink.com 1.10,2013-02-06 07:09:00,
2013-02-06 02:24:00,15.5,5.0,29.93,North,355,5.0,9.0,63,0.00,,,0.00,weatherlink.com 1.10,2013-02-06 07:24:00,
2013-02-06 02:39:00,14.5,6.0,29.92,NNW,344,3.0,6.0,69,0.00,,,0.00,weatherlink.com 1.10,2013-02-06 07:39:00,
2013-02-06 02:54:00,14.8,7.0,29.91,NNW,348,9.0,10.0,71,0.00,,,0.00,weatherlink.com 1.10,2013-02-06 07:54:00,
2013-02-06 03:09:00,15.0,7.0,29.91,North,350,8.0,11.0,69,0.00,,,0.00,weatherlink.com 1.10,2013-02-06 08:09:00,
2013-02-06 03:24:00,14.9,6.0,29.91,North,360,9.0,11.0,68,0.00,,,0.00,weatherlink.com 1.10,2013-02-06 08:24:00,
2013-02-06 03:39:00,15.3,7.0,29.91,North,355,6.0,9.0,69,0.00,,,0.00,weatherlink.com 1.10,2013-02-06 08:39:00,
2013-02-06 03:54:00,15.4,7.0,29.91,North,5,6.0,9.0,68,0.00,,,0.00,weatherlink.com 1.10,2013-02-06 08:54:00,
2013-02-06 04:09:00,15.8,7.0,29.90,North,11,5.0,8.0,68,0.00,,,0.00,weatherlink.com 1.10,2013-02-06 09:09:00,
2013-02-06 04:24:00,15.9,7.0,29.91,NNW,348,7.0,8.0,67,0.00,,,0.00,weatherlink.com 1.10,2013-02-06 09:24:00,
2013-02-06 04:39:00,16.2,7.0,29.90,North,350,6.0,9.0,68,0.00,,,0.00,weatherlink.com 1.10,2013-02-06 09:39:00,
2013-02-06 04:54:00,16.8,9.0,29.90,NNW,348,8.0,11.0,70,0.00,,,0.00,weatherlink.com 1.10,2013-02-06 09:54:00,
2013-02-06 05:24:00,17.4,11.0,29.89,North,5,7.0,10.0,75,0.00,,,0.00,weatherlink.com 1.10,2013-02-06 10:24:00,
2013-02-06 05:39:00,17.9,12.0,29.90,NNW,344,6.0,9.0,76,0.00,,,0.00,weatherlink.com 1.10,2013-02-06 10:39:00,
2013-02-06 05:54:00,17.6,11.0,29.90,North,355,7.0,9.0,74,0.00,,,0.00,weatherlink.com 1.10,2013-02-06 10:54:00,
2013-02-06 06:09:00,17.5,11.0,29.90,North,355,7.0,9.0,75,0.00,,,0.00,weatherlink.com 1.10,2013-02-06 11:09:00,
2013-02-06 06:24:00,17.2,11.0,29.90,NNW,346,7.0,10.0,75,0.00,,,0.00,weatherlink.com 1.10,2013-02-06 11:24:00,
2013-02-06 06:39:00,17.2,11.0,29.90,NNW,331,5.0,9.0,75,0.00,,,0.00,weatherlink.com 1.10,2013-02-06 11:39:00,
2013-02-06 06:54:00,16.9,10.0,29.91,NW,321,0.0,5.0,74,0.00,,,0.00,weatherlink.com 1.10,2013-02-06 11:54:00,
2013-02-06 07:09:00,17.3,11.0,29.91,NNW,344,6.0,8.0,76,0.00,,,0.00,weatherlink.com 1.10,2013-02-06 12:09:00,
2013-02-06 07:25:00,17.3,11.0,29.91,NNW,329,5.0,9.0,76,0.00,,,0.00,weatherlink.com 1.10,2013-02-06 12:25:00,
2013-02-06 07:39:00,17.8,11.0,29.91,North,351,5.0,8.0,76,0.00,,,0.00,weatherlink.com 1.10,2013-02-06 12:39:00,
2013-02-06 07:55:00,18.0,12.0,29.92,NNW,331,4.0,10.0,77,0.00,,,0.00,weatherlink.com 1.10,2013-02-06 12:55:00,
2013-02-06 08:10:00,18.3,13.0,29.91,NNW,340,8.0,9.0,78,0.00,,,0.00,weatherlink.com 1.10,2013-02-06 13:10:00,
2013-02-06 08:40:00,18.7,13.0,29.90,North,355,4.0,8.0,79,0.00,,,0.00,weatherlink.com 1.10,2013-02-06 13:40:00,
2013-02-06 08:55:00,18.7,14.0,29.90,NNE,15,4.0,8.0,82,0.00,,,0.00,weatherlink.com 1.10,2013-02-06 13:55:00,
2013-02-06 09:10:00,19.4,16.0,29.90,NNW,340,5.0,6.0,85,0.00,,,0.00,weatherlink.com 1.10,2013-02-06 14:10:00,
2013-02-06 09:25:00,19.7,16.0,29.90,NNW,344,6.0,7.0,86,0.00,,,0.00,weatherlink.com 1.10,2013-02-06 14:25:00,
2013-02-06 09:40:00,20.2,17.0,29.90,NNW,344,2.0,5.0,87,0.00,,,0.00,weatherlink.com 1.10,2013-02-06 14:40:00,
2013-02-06 09:55:00,20.5,18.0,29.90,NNW,340,0.0,4.0,88,0.00,,,0.00,weatherlink.com 1.10,2013-02-06 14:55:00,
2013-02-06 10:10:00,20.7,18.0,29.90,NNW,340,2.0,2.0,89,0.00,,,0.00,weatherlink.com 1.10,2013-02-06 15:10:00,
2013-02-06 10:25:00,21.5,19.0,29.90,NNW,340,0.0,0.0,91,0.00,,,0.00,weatherlink.com 1.10,2013-02-06 15:25:00,
2013-02-06 10:40:00,21.8,19.0,29.90,NNW,340,0.0,2.0,90,0.00,,,0.00,weatherlink.com 1.10,2013-02-06 15:40:00,
2013-02-06 10:55:00,22.5,20.0,29.89,NNW,342,1.0,3.0,91,0.00,,,0.00,weatherlink.com 1.10,2013-02-06 15:55:00,
2013-02-06 11:10:00,22.9,21.0,29.88,North,9,2.0,3.0,91,0.00,,,0.00,weatherlink.com 1.10,2013-02-06 16:10:00,
2013-02-06 11:25:00,23.4,21.0,29.87,North,9,0.0,2.0,91,0.00,,,0.00,weatherlink.com 1.10,2013-02-06 16:25:00,
2013-02-06 11:40:00,24.0,22.0,29.87,NNE,19,2.0,3.0,90,0.01,,,0.01,weatherlink.com 1.10,2013-02-06 16:40:00,
2013-02-06 11:55:00,24.8,22.0,29.86,North,360,2.0,3.0,90,0.01,,,0.01,weatherlink.com 1.10,2013-02-06 16:55:00,
2013-02-06 12:11:00,26.9,24.0,29.86,North,360,2.0,2.0,89,0.01,,,0.01,weatherlink.com 1.10,2013-02-06 17:11:00,
2013-02-06 12:26:00,27.8,25.0,29.86,North,360,0.0,2.0,88,0.01,,,0.01,weatherlink.com 1.10,2013-02-06 17:26:00,
2013-02-06 12:40:00,28.1,25.0,29.85,North,360,0.0,3.0,88,0.00,,,0.01,weatherlink.com 1.10,2013-02-06 17:40:00,
2013-02-06 12:55:00,30.2,28.0,29.85,ENE,76,3.0,3.0,90,0.00,,,0.01,weatherlink.com 1.10,2013-02-06 17:55:00,
2013-02-06 13:10:00,31.6,26.0,29.85,South,175,4.0,8.0,81,0.00,,,0.01,weatherlink.com 1.10,2013-02-06 18:10:00,
2013-02-06 13:25:00,31.9,26.0,29.84,South,173,0.0,7.0,80,0.00,,,0.01,weatherlink.com 1.10,2013-02-06 18:25:00,
2013-02-06 13:40:00,32.2,26.0,29.84,SW,220,1.0,6.0,79,0.00,,,0.01,weatherlink.com 1.10,2013-02-06 18:40:00,
2013-02-06 13:55:00,32.9,25.0,29.84,SSW,197,5.0,8.0,74,0.00,,,0.01,weatherlink.com 1.10,2013-02-06 18:55:00,
2013-02-06 14:11:00,33.2,26.0,29.85,SSW,200,1.0,7.0,74,0.00,,,0.01,weatherlink.com 1.10,2013-02-06 19:11:00,
2013-02-06 14:26:00,33.3,26.0,29.85,SSW,212,1.0,6.0,73,0.00,,,0.01,weatherlink.com 1.10,2013-02-06 19:26:00,
2013-02-06 14:41:00,33.8,25.0,29.85,SW,214,0.0,7.0,70,0.00,,,0.01,weatherlink.com 1.10,2013-02-06 19:41:00,
2013-02-06 14:56:00,33.5,24.0,29.85,SSW,208,0.0,12.0,68,0.00,,,0.01,weatherlink.com 1.10,2013-02-06 19:56:00,
2013-02-06 15:11:00,33.4,23.0,29.86,South,182,3.0,8.0,66,0.00,,,0.01,weatherlink.com 1.10,2013-02-06 20:11:00,
2013-02-06 15:26:00,33.6,23.0,29.86,SW,234,2.0,8.0,64,0.00,,,0.01,weatherlink.com 1.10,2013-02-06 20:26:00,
2013-02-06 15:41:00,33.4,21.0,29.86,SSW,207,5.0,8.0,61,0.00,,,0.01,weatherlink.com 1.10,2013-02-06 20:41:00,
2013-02-06 15:56:00,33.0,21.0,29.87,SSW,213,4.0,9.0,62,0.00,,,0.01,weatherlink.com 1.10,2013-02-06 20:56:00,
2013-02-06 16:11:00,32.9,21.0,29.87,SW,219,2.0,8.0,61,0.00,,,0.01,weatherlink.com 1.10,2013-02-06 21:11:00,
2013-02-06 16:26:00,32.3,20.0,29.88,West,260,1.0,6.0,61,0.00,,,0.01,weatherlink.com 1.10,2013-02-06 21:26:00,
2013-02-06 16:41:00,31.4,18.0,29.88,SW,235,0.0,4.0,59,0.00,,,0.01,weatherlink.com 1.10,2013-02-06 21:41:00,
2013-02-06 16:56:00,30.9,18.0,29.89,West,278,1.0,5.0,59,0.00,,,0.01,weatherlink.com 1.10,2013-02-06 21:56:00,
2013-02-06 17:11:00,30.4,17.0,29.90,SSW,194,0.0,3.0,58,0.00,,,0.01,weatherlink.com 1.10,2013-02-06 22:11:00,
2013-02-06 17:26:00,30.0,18.0,29.92,SSW,213,0.0,5.0,60,0.00,,,0.01,weatherlink.com 1.10,2013-02-06 22:26:00,
2013-02-06 17:41:00,29.8,18.0,29.92,SW,227,2.0,8.0,62,0.00,,,0.01,weatherlink.com 1.10,2013-02-06 22:41:00,
2013-02-06 17:56:00,29.6,19.0,29.93,SW,233,2.0,5.0,64,0.00,,,0.01,weatherlink.com 1.10,2013-02-06 22:56:00,
2013-02-06 18:11:00,29.4,18.0,29.94,WSW,243,0.0,7.0,63,0.00,,,0.01,weatherlink.com 1.10,2013-02-06 23:11:00,
2013-02-06 18:26:00,29.0,17.0,29.95,SW,229,0.0,6.0,62,0.00,,,0.01,weatherlink.com 1.10,2013-02-06 23:26:00,
2013-02-06 18:41:00,28.4,14.0,29.97,SW,224,0.0,10.0,54,0.00,,,0.01,weatherlink.com 1.10,2013-02-06 23:41:00,
2013-02-06 18:56:00,27.7,12.0,29.98,WSW,242,2.0,7.0,52,0.00,,,0.01,weatherlink.com 1.10,2013-02-06 23:56:00,
2013-02-06 19:11:00,26.9,11.0,29.99,WSW,244,3.0,10.0,51,0.00,,,0.01,weatherlink.com 1.10,2013-02-07 00:11:00,
2013-02-06 19:26:00,26.4,9.0,30.00,NW,319,6.0,13.0,49,0.00,,,0.01,weatherlink.com 1.10,2013-02-07 00:26:00,
2013-02-06 19:41:00,25.7,6.0,30.01,NW,319,5.0,13.0,43,0.00,,,0.01,weatherlink.com 1.10,2013-02-07 00:41:00,
2013-02-06 19:56:00,24.9,4.0,30.02,West,274,5.0,9.0,41,0.00,,,0.01,weatherlink.com 1.10,2013-02-07 00:56:00,
2013-02-06 20:11:00,24.3,4.0,30.03,WNW,295,0.0,7.0,41,0.00,,,0.01,weatherlink.com 1.10,2013-02-07 01:11:00,
2013-02-06 20:26:00,24.0,3.0,30.04,NNE,19,0.0,11.0,41,0.00,,,0.01,weatherlink.com 1.10,2013-02-07 01:26:00,
2013-02-06 20:41:00,23.4,3.0,30.05,WSW,242,4.0,12.0,41,0.00,,,0.01,weatherlink.com 1.10,2013-02-07 01:41:00,
2013-02-06 20:57:00,22.8,3.0,30.06,WSW,252,0.0,8.0,42,0.00,,,0.01,weatherlink.com 1.10,2013-02-07 01:57:00,
2013-02-06 21:11:00,22.2,2.0,30.07,SW,221,3.0,9.0,42,0.00,,,0.01,weatherlink.com 1.10,2013-02-07 02:11:00,
2013-02-06 21:26:00,22.0,1.0,30.07,West,261,2.0,10.0,40,0.00,,,0.01,weatherlink.com 1.10,2013-02-07 02:26:00,
2013-02-06 21:42:00,21.3,1.0,30.08,WSW,240,2.0,5.0,42,0.00,,,0.01,weatherlink.com 1.10,2013-02-07 02:42:00,
2013-02-06 21:57:00,20.9,1.0,30.09,WNW,297,1.0,7.0,42,0.00,,,0.01,weatherlink.com 1.10,2013-02-07 02:57:00,
2013-02-06 22:11:00,20.4,1.0,30.10,SSW,196,2.0,9.0,42,0.00,,,0.01,weatherlink.com 1.10,2013-02-07 03:11:00,
2013-02-06 22:27:00,20.1,1.0,30.10,WSW,238,6.0,8.0,43,0.00,,,0.01,weatherlink.com 1.10,2013-02-07 03:27:00,
2013-02-06 22:41:00,19.6,1.0,30.11,West,271,2.0,8.0,44,0.00,,,0.01,weatherlink.com 1.10,2013-02-07 03:41:00,
2013-02-06 22:56:00,19.3,2.0,30.12,WNW,288,1.0,9.0,47,0.00,,,0.01,weatherlink.com 1.10,2013-02-07 03:56:00,
2013-02-06 23:11:00,18.8,3.0,30.13,WSW,258,3.0,7.0,51,0.00,,,0.01,weatherlink.com 1.10,2013-02-07 04:11:00,
2013-02-06 23:26:00,18.2,3.0,30.14,NNE,12,0.0,13.0,51,0.00,,,0.01,weatherlink.com 1.10,2013-02-07 04:26:00,
2013-02-06 23:42:00,17.3,2.0,30.15,NE,44,2.0,6.0,50,0.00,,,0.01,weatherlink.com 1.10,2013-02-07 04:42:00,
2013-02-06 23:57:00,16.6,1.0,30.17,WNW,288,0.0,10.0,50,0.00,,,0.01,weatherlink.com 1.10,2013-02-07 04:57:00,